Oxberry, Mississippi
Current Conditions -  °F | °C
As of 7:55 AM on Friday 24 Oct 2014 (Local Time) from KGWO Reporting Station
Haze Haze  
Wind Chill: 45°   Ceiling: 100
Heat Index: 45°   Visibility: 3mi
Dew Point: 44°   Wind: 0mph
Humidity: 97%   Direction: NA
Pressure: 30.15"   Gusts: NA
Location:  33.7549°N, 89.9608°W
Report Text: KGWO 241255Z AUTO 00000KT 3SM BR BKN001 07/07 A3015 RMK AO2 T00720067 TSNO
Loading
Personal Weather Stations






























Interactive Weather Map
Tropical Storm Tracking
New forecast layout! Learn more

10-Day Weather Forecast

Advertisements
Track Severe Weather on mobile